Terminal Aerodrome Forecast
Issued by NWS

Home | Current Version | Previous Version | Text Only | Print | Product List | Glossary On
Versions: 1 2 3 4 5 6 7 8 9 10 11 12 13 14 15 16 17 18
000
FTUS45 KFGZ 311126
TAFPRC
TAF
KPRC 311126Z 3112/0112 VRB06KT P6SM SCT090 BKN150
     FM311700 VRB08G16KT P6SM VCTS BKN070CB OVC100
      TEMPO 3119/3123 VRB20G30KT 4SM TSRA OVC060CB
     FM010300 VRB05KT P6SM SCT070 SCT150=

USA.gov is the U.S. government's official web portal to all federal, state and local government web resources and services.